sensor_id;sensor_type;location;lat;lon;timestamp;pressure;altitude;pressure_sealevel;temperature;humidity
37710;BME280;60223;34.854;-92.408;2022-10-16T00:00:38;100298.80;;;32.57;25.55
37710;BME280;60223;34.854;-92.408;2022-10-16T00:03:04;100294.21;;;32.27;25.74
37710;BME280;60223;34.854;-92.408;2022-10-16T00:05:29;100293.87;;;32.78;25.38
37710;BME280;60223;34.854;-92.408;2022-10-16T00:07:56;100297.72;;;32.68;25.44
37710;BME280;60223;34.854;-92.408;2022-10-16T00:10:22;100290.48;;;32.35;25.47
37710;BME280;60223;34.854;-92.408;2022-10-16T00:12:44;100290.08;;;32.77;25.28
37710;BME280;60223;34.854;-92.408;2022-10-16T00:15:12;100278.66;;;32.23;25.59
37710;BME280;60223;34.854;-92.408;2022-10-16T00:17:39;100261.33;;;32.57;25.47
37710;BME280;60223;34.854;-92.408;2022-10-16T00:20:10;100233.40;;;31.95;25.66
37710;BME280;60223;34.854;-92.408;2022-10-16T00:22:28;100221.59;;;32.74;25.28
37710;BME280;60223;34.854;-92.408;2022-10-16T00:24:57;100234.68;;;32.29;25.50
37710;BME280;60223;34.854;-92.408;2022-10-16T00:27:19;100237.73;;;32.82;25.40
37710;BME280;60223;34.854;-92.408;2022-10-16T00:29:44;100239.94;;;32.84;25.38
37710;BME280;60223;34.854;-92.408;2022-10-16T00:32:10;100234.34;;;32.55;25.26
37710;BME280;60223;34.854;-92.408;2022-10-16T00:37:00;100273.47;;;31.65;25.81
37710;BME280;60223;34.854;-92.408;2022-10-16T00:39:26;100284.79;;;32.49;25.36
37710;BME280;60223;34.854;-92.408;2022-10-16T00:41:50;100300.28;;;32.51;25.30
37710;BME280;60223;34.854;-92.408;2022-10-16T00:46:43;100309.81;;;32.64;24.74
37710;BME280;60223;34.854;-92.408;2022-10-16T00:49:10;100307.98;;;32.57;24.82
37710;BME280;60223;34.854;-92.408;2022-10-16T00:51:37;100311.66;;;32.22;24.95
37710;BME280;60223;34.854;-92.408;2022-10-16T00:53:59;100330.57;;;32.28;24.81
37710;BME280;60223;34.854;-92.408;2022-10-16T00:56:22;100371.18;;;32.59;24.56
37710;BME280;60223;34.854;-92.408;2022-10-16T00:58:49;100399.21;;;32.28;24.58
37710;BME280;60223;34.854;-92.408;2022-10-16T01:01:14;100395.61;;;32.60;24.24
37710;BME280;60223;34.854;-92.408;2022-10-16T01:03:41;100371.81;;;32.55;24.08
37710;BME280;60223;34.854;-92.408;2022-10-16T01:06:19;100378.36;;;32.20;23.81
37710;BME280;60223;34.854;-92.408;2022-10-16T01:08:35;100392.63;;;32.60;23.66
37710;BME280;60223;34.854;-92.408;2022-10-16T01:11:01;100387.15;;;32.52;23.57
37710;BME280;60223;34.854;-92.408;2022-10-16T01:13:24;100364.00;;;32.42;23.60
37710;BME280;60223;34.854;-92.408;2022-10-16T01:15:49;100358.59;;;32.32;24.09
37710;BME280;60223;34.854;-92.408;2022-10-16T01:18:19;100356.13;;;32.03;24.13
37710;BME280;60223;34.854;-92.408;2022-10-16T01:20:42;100350.73;;;32.25;23.36
37710;BME280;60223;34.854;-92.408;2022-10-16T01:23:17;100336.58;;;32.24;24.42
37710;BME280;60223;34.854;-92.408;2022-10-16T01:25:39;100328.52;;;32.48;24.01
37710;BME280;60223;34.854;-92.408;2022-10-16T01:27:55;100338.14;;;32.21;24.18
37710;BME280;60223;34.854;-92.408;2022-10-16T01:30:25;100368.97;;;31.74;24.66
37710;BME280;60223;34.854;-92.408;2022-10-16T01:35:17;100414.00;;;32.18;24.31
37710;BME280;60223;34.854;-92.408;2022-10-16T01:37:47;100408.68;;;32.34;24.06
37710;BME280;60223;34.854;-92.408;2022-10-16T01:40:07;100408.61;;;32.57;23.97
37710;BME280;60223;34.854;-92.408;2022-10-16T01:42:34;100397.58;;;32.53;23.90
37710;BME280;60223;34.854;-92.408;2022-10-16T01:44:56;100399.17;;;31.81;24.64
37710;BME280;60223;34.854;-92.408;2022-10-16T01:47:22;100408.81;;;31.68;24.67
37710;BME280;60223;34.854;-92.408;2022-10-16T01:49:46;100441.31;;;32.27;24.23
37710;BME280;60223;34.854;-92.408;2022-10-16T01:52:15;100451.57;;;32.07;24.50
37710;BME280;60223;34.854;-92.408;2022-10-16T01:54:39;100460.63;;;31.42;25.37
37710;BME280;60223;34.854;-92.408;2022-10-16T01:57:03;100457.64;;;31.60;24.88
37710;BME280;60223;34.854;-92.408;2022-10-16T01:59:28;100455.19;;;32.19;24.22
37710;BME280;60223;34.854;-92.408;2022-10-16T02:01:55;100483.35;;;32.37;24.49
37710;BME280;60223;34.854;-92.408;2022-10-16T02:04:28;100505.92;;;32.61;24.46
37710;BME280;60223;34.854;-92.408;2022-10-16T02:06:45;100497.16;;;32.33;24.50
37710;BME280;60223;34.854;-92.408;2022-10-16T02:09:12;100523.16;;;32.03;24.48
37710;BME280;60223;34.854;-92.408;2022-10-16T02:11:35;100549.95;;;32.45;24.37
37710;BME280;60223;34.854;-92.408;2022-10-16T02:14:03;100578.87;;;31.07;25.41
37710;BME280;60223;34.854;-92.408;2022-10-16T02:16:33;100619.25;;;32.38;24.56
37710;BME280;60223;34.854;-92.408;2022-10-16T02:18:51;100615.03;;;32.24;24.72
37710;BME280;60223;34.854;-92.408;2022-10-16T02:21:23;100611.77;;;32.47;24.47
37710;BME280;60223;34.854;-92.408;2022-10-16T02:23:50;100609.91;;;32.74;24.41
37710;BME280;60223;34.854;-92.408;2022-10-16T02:26:13;100609.56;;;32.33;24.60
37710;BME280;60223;34.854;-92.408;2022-10-16T02:28:40;100637.60;;;32.22;24.42
37710;BME280;60223;34.854;-92.408;2022-10-16T02:31:04;100646.90;;;32.51;24.63
37710;BME280;60223;34.854;-92.408;2022-10-16T02:33:28;100661.03;;;32.39;24.46
37710;BME280;60223;34.854;-92.408;2022-10-16T02:35:53;100658.02;;;32.09;24.57
37710;BME280;60223;34.854;-92.408;2022-10-16T02:38:17;100659.80;;;32.21;24.67
37710;BME280;60223;34.854;-92.408;2022-10-16T02:40:41;100638.53;;;32.13;24.78
37710;BME280;60223;34.854;-92.408;2022-10-16T02:43:10;100624.37;;;32.13;24.76
37710;BME280;60223;34.854;-92.408;2022-10-16T02:45:35;100616.10;;;32.35;24.76
37710;BME280;60223;34.854;-92.408;2022-10-16T02:48:00;100614.63;;;32.40;24.55
37710;BME280;60223;34.854;-92.408;2022-10-16T02:50:23;100601.65;;;32.24;24.69
37710;BME280;60223;34.854;-92.408;2022-10-16T02:52:50;100581.28;;;32.25;24.52
37710;BME280;60223;34.854;-92.408;2022-10-16T02:55:15;100580.27;;;31.67;25.22
37710;BME280;60223;34.854;-92.408;2022-10-16T02:57:40;100651.86;;;32.15;24.85
37710;BME280;60223;34.854;-92.408;2022-10-16T03:00:07;100722.67;;;32.16;24.85
37710;BME280;60223;34.854;-92.408;2022-10-16T03:02:31;100746.70;;;32.54;24.66
37710;BME280;60223;34.854;-92.408;2022-10-16T03:04:55;100778.93;;;31.61;25.40
37710;BME280;60223;34.854;-92.408;2022-10-16T03:07:22;100808.77;;;32.41;24.62
37710;BME280;60223;34.854;-92.408;2022-10-16T03:09:46;100818.82;;;32.00;24.99
37710;BME280;60223;34.854;-92.408;2022-10-16T03:12:13;100781.73;;;32.48;24.78
37710;BME280;60223;34.854;-92.408;2022-10-16T03:14:38;100733.31;;;32.25;25.11
37710;BME280;60223;34.854;-92.408;2022-10-16T03:17:01;100713.60;;;31.90;25.74
37710;BME280;60223;34.854;-92.408;2022-10-16T03:19:29;100713.51;;;31.46;25.71
37710;BME280;60223;34.854;-92.408;2022-10-16T03:21:54;100724.36;;;31.99;25.23
37710;BME280;60223;34.854;-92.408;2022-10-16T03:24:20;100724.71;;;32.62;24.86
37710;BME280;60223;34.854;-92.408;2022-10-16T03:26:45;100702.10;;;32.25;24.94
37710;BME280;60223;34.854;-92.408;2022-10-16T03:29:11;100717.97;;;32.62;24.53
37710;BME280;60223;34.854;-92.408;2022-10-16T03:31:36;100729.62;;;32.33;24.81
37710;BME280;60223;34.854;-92.408;2022-10-16T03:34:01;100745.79;;;32.26;24.90
37710;BME280;60223;34.854;-92.408;2022-10-16T04:00:44;100878.13;;;32.25;25.10
37710;BME280;60223;34.854;-92.408;2022-10-16T04:03:06;100854.63;;;32.36;25.02
37710;BME280;60223;34.854;-92.408;2022-10-16T04:05:31;100806.39;;;32.52;24.84
37710;BME280;60223;34.854;-92.408;2022-10-16T04:07:54;100779.50;;;31.90;25.19
37710;BME280;60223;34.854;-92.408;2022-10-16T04:10:25;100755.72;;;32.44;24.92
37710;BME280;60223;34.854;-92.408;2022-10-16T04:12:47;100705.41;;;32.14;24.92
37710;BME280;60223;34.854;-92.408;2022-10-16T04:15:13;100719.40;;;32.10;25.17
37710;BME280;60223;34.854;-92.408;2022-10-16T04:20:03;100725.59;;;31.79;25.25
37710;BME280;60223;34.854;-92.408;2022-10-16T04:22:29;100736.97;;;32.10;25.17
37710;BME280;60223;34.854;-92.408;2022-10-16T04:24:53;100741.87;;;31.65;25.18
37710;BME280;60223;34.854;-92.408;2022-10-16T04:27:19;100730.95;;;31.72;25.28
37710;BME280;60223;34.854;-92.408;2022-10-16T04:29:44;100706.16;;;31.70;25.28
37710;BME280;60223;34.854;-92.408;2022-10-16T04:32:12;100692.84;;;31.63;25.34
37710;BME280;60223;34.854;-92.408;2022-10-16T04:34:36;100699.26;;;31.90;25.01
37710;BME280;60223;34.854;-92.408;2022-10-16T04:36:59;100683.29;;;30.71;26.41
37710;BME280;60223;34.854;-92.408;2022-10-16T04:39:26;100651.19;;;32.07;25.25
37710;BME280;60223;34.854;-92.408;2022-10-16T04:41:52;100626.47;;;31.26;26.03
37710;BME280;60223;34.854;-92.408;2022-10-16T04:44:17;100598.22;;;32.11;25.18
37710;BME280;60223;34.854;-92.408;2022-10-16T04:46:42;100584.63;;;31.85;25.16
37710;BME280;60223;34.854;-92.408;2022-10-16T04:49:08;100598.58;;;31.29;25.66
37710;BME280;60223;34.854;-92.408;2022-10-16T04:51:34;100617.82;;;32.06;25.18
37710;BME280;60223;34.854;-92.408;2022-10-16T04:53:59;100621.65;;;31.78;25.34
37710;BME280;60223;34.854;-92.408;2022-10-16T04:56:25;100606.04;;;31.96;25.25
37710;BME280;60223;34.854;-92.408;2022-10-16T04:58:49;100593.64;;;32.00;25.28
37710;BME280;60223;34.854;-92.408;2022-10-16T05:01:15;100582.48;;;32.29;24.96
37710;BME280;60223;34.854;-92.408;2022-10-16T05:03:40;100578.05;;;32.11;25.12
37710;BME280;60223;34.854;-92.408;2022-10-16T05:06:05;100582.33;;;31.73;25.25
37710;BME280;60223;34.854;-92.408;2022-10-16T05:08:30;100586.24;;;31.79;25.19
37710;BME280;60223;34.854;-92.408;2022-10-16T05:10:56;100575.81;;;31.93;25.28
37710;BME280;60223;34.854;-92.408;2022-10-16T05:13:22;100571.16;;;31.94;25.18
37710;BME280;60223;34.854;-92.408;2022-10-16T05:15:50;100563.04;;;31.93;25.18
37710;BME280;60223;34.854;-92.408;2022-10-16T05:18:12;100571.80;;;31.80;25.09
37710;BME280;60223;34.854;-92.408;2022-10-16T05:20:38;100571.26;;;31.81;25.29
37710;BME280;60223;34.854;-92.408;2022-10-16T05:23:04;100578.64;;;31.90;25.00
37710;BME280;60223;34.854;-92.408;2022-10-16T05:25:29;100579.34;;;31.99;25.11
37710;BME280;60223;34.854;-92.408;2022-10-16T05:27:54;100575.51;;;32.01;25.13
37710;BME280;60223;34.854;-92.408;2022-10-16T05:30:20;100547.00;;;32.16;24.96
37710;BME280;60223;34.854;-92.408;2022-10-16T05:32:46;100535.97;;;31.84;25.16
37710;BME280;60223;34.854;-92.408;2022-10-16T05:35:11;100534.84;;;32.23;25.02
37710;BME280;60223;34.854;-92.408;2022-10-16T05:37:37;100534.28;;;32.15;24.87
37710;BME280;60223;34.854;-92.408;2022-10-16T05:42:28;100521.31;;;32.00;25.03
37710;BME280;60223;34.854;-92.408;2022-10-16T05:44:53;100525.32;;;31.76;25.26
37710;BME280;60223;34.854;-92.408;2022-10-16T05:47:17;100528.25;;;31.87;25.19
37710;BME280;60223;34.854;-92.408;2022-10-16T05:49:45;100545.87;;;32.00;25.02
37710;BME280;60223;34.854;-92.408;2022-10-16T05:52:08;100563.43;;;31.93;25.00
37710;BME280;60223;34.854;-92.408;2022-10-16T05:54:35;100567.04;;;32.17;24.98
37710;BME280;60223;34.854;-92.408;2022-10-16T05:57:00;100570.88;;;31.83;25.07
37710;BME280;60223;34.854;-92.408;2022-10-16T05:59:25;100571.71;;;31.61;25.20
37710;BME280;60223;34.854;-92.408;2022-10-16T06:01:52;100569.82;;;31.80;24.96
37710;BME280;60223;34.854;-92.408;2022-10-16T06:04:16;100573.01;;;31.69;25.03
37710;BME280;60223;34.854;-92.408;2022-10-16T06:06:51;100570.31;;;31.72;25.03
37710;BME280;60223;34.854;-92.408;2022-10-16T06:09:08;100557.36;;;31.52;25.07
37710;BME280;60223;34.854;-92.408;2022-10-16T06:11:33;100557.75;;;31.69;24.93
37710;BME280;60223;34.854;-92.408;2022-10-16T06:14:00;100556.88;;;31.61;24.85
37710;BME280;60223;34.854;-92.408;2022-10-16T06:16:23;100558.41;;;31.38;24.99
37710;BME280;60223;34.854;-92.408;2022-10-16T06:18:50;100556.94;;;31.38;24.96
37710;BME280;60223;34.854;-92.408;2022-10-16T06:21:16;100549.11;;;31.57;24.86
37710;BME280;60223;34.854;-92.408;2022-10-16T06:23:40;100550.26;;;31.16;25.11
37710;BME280;60223;34.854;-92.408;2022-10-16T06:26:10;100552.24;;;31.44;24.90
37710;BME280;60223;34.854;-92.408;2022-10-16T06:28:31;100566.44;;;31.54;24.98
37710;BME280;60223;34.854;-92.408;2022-10-16T06:30:59;100569.89;;;31.65;24.88
37710;BME280;60223;34.854;-92.408;2022-10-16T06:33:22;100569.11;;;31.05;24.97
37710;BME280;60223;34.854;-92.408;2022-10-16T06:35:47;100568.72;;;31.63;24.66
37710;BME280;60223;34.854;-92.408;2022-10-16T06:38:12;100566.75;;;31.51;24.77
37710;BME280;60223;34.854;-92.408;2022-10-16T06:40:39;100563.11;;;31.57;24.67
37710;BME280;60223;34.854;-92.408;2022-10-16T06:43:05;100564.47;;;31.40;24.61
37710;BME280;60223;34.854;-92.408;2022-10-16T06:45:29;100562.71;;;31.56;24.65
37710;BME280;60223;34.854;-92.408;2022-10-16T06:47:56;100556.42;;;31.41;24.79
37710;BME280;60223;34.854;-92.408;2022-10-16T06:50:20;100560.35;;;31.42;24.74
37710;BME280;60223;34.854;-92.408;2022-10-16T06:52:45;100555.17;;;31.67;24.52
37710;BME280;60223;34.854;-92.408;2022-10-16T06:55:12;100555.60;;;31.36;24.74
37710;BME280;60223;34.854;-92.408;2022-10-16T07:00:02;100573.32;;;31.46;24.65
37710;BME280;60223;34.854;-92.408;2022-10-16T07:02:27;100570.76;;;31.34;24.77
37710;BME280;60223;34.854;-92.408;2022-10-16T07:04:54;100561.54;;;31.74;24.37
37710;BME280;60223;34.854;-92.408;2022-10-16T07:07:17;100554.43;;;31.08;24.89
37710;BME280;60223;34.854;-92.408;2022-10-16T07:09:45;100541.58;;;31.53;24.51
37710;BME280;60223;34.854;-92.408;2022-10-16T07:12:10;100530.77;;;31.45;24.59
37710;BME280;60223;34.854;-92.408;2022-10-16T07:14:37;100540.16;;;31.65;24.41
37710;BME280;60223;34.854;-92.408;2022-10-16T07:17:02;100549.29;;;31.62;24.43
37710;BME280;60223;34.854;-92.408;2022-10-16T07:19:27;100551.35;;;31.37;24.59
37710;BME280;60223;34.854;-92.408;2022-10-16T07:21:50;100556.91;;;31.54;24.40
37710;BME280;60223;34.854;-92.408;2022-10-16T07:24:19;100573.75;;;31.46;24.45
37710;BME280;60223;34.854;-92.408;2022-10-16T07:26:45;100580.62;;;32.20;24.25
37710;BME280;60223;34.854;-92.408;2022-10-16T07:29:12;100572.89;;;31.98;23.96
37710;BME280;60223;34.854;-92.408;2022-10-16T07:31:36;100567.81;;;31.66;24.22
37710;BME280;60223;34.854;-92.408;2022-10-16T07:34:01;100571.14;;;31.49;24.36
37710;BME280;60223;34.854;-92.408;2022-10-16T07:36:25;100566.96;;;31.78;24.13
37710;BME280;60223;34.854;-92.408;2022-10-16T07:38:53;100568.40;;;31.84;24.06
37710;BME280;60223;34.854;-92.408;2022-10-16T07:41:19;100574.17;;;31.36;24.45
37710;BME280;60223;34.854;-92.408;2022-10-16T07:43:45;100578.21;;;31.61;24.25
37710;BME280;60223;34.854;-92.408;2022-10-16T07:46:09;100575.85;;;31.57;24.21
37710;BME280;60223;34.854;-92.408;2022-10-16T07:48:33;100576.61;;;31.48;24.30
37710;BME280;60223;34.854;-92.408;2022-10-16T07:51:02;100581.13;;;31.26;24.45
37710;BME280;60223;34.854;-92.408;2022-10-16T07:53:25;100604.80;;;31.50;24.22
37710;BME280;60223;34.854;-92.408;2022-10-16T07:55:59;100645.07;;;31.66;24.16
37710;BME280;60223;34.854;-92.408;2022-10-16T07:58:17;100671.47;;;31.56;24.19
37710;BME280;60223;34.854;-92.408;2022-10-16T08:00:42;100682.29;;;31.62;24.51
37710;BME280;60223;34.854;-92.408;2022-10-16T08:03:08;100677.17;;;31.21;24.69
37710;BME280;60223;34.854;-92.408;2022-10-16T08:05:35;100669.16;;;31.01;24.60
37710;BME280;60223;34.854;-92.408;2022-10-16T08:08:00;100667.77;;;30.18;25.34
37710;BME280;60223;34.854;-92.408;2022-10-16T08:10:23;100651.64;;;31.38;24.33
37710;BME280;60223;34.854;-92.408;2022-10-16T08:12:50;100644.36;;;30.23;25.03
37710;BME280;60223;34.854;-92.408;2022-10-16T08:15:15;100652.71;;;31.66;24.08
37710;BME280;60223;34.854;-92.408;2022-10-16T08:17:41;100664.78;;;31.06;24.45
37710;BME280;60223;34.854;-92.408;2022-10-16T08:20:07;100669.01;;;31.04;24.91
37710;BME280;60223;34.854;-92.408;2022-10-16T08:22:32;100670.24;;;31.35;24.47
37710;BME280;60223;34.854;-92.408;2022-10-16T08:24:57;100673.89;;;31.60;24.19
37710;BME280;60223;34.854;-92.408;2022-10-16T08:27:22;100689.58;;;31.34;24.18
37710;BME280;60223;34.854;-92.408;2022-10-16T08:29:48;100683.08;;;31.52;24.03
37710;BME280;60223;34.854;-92.408;2022-10-16T08:32:13;100675.84;;;31.37;24.35
37710;BME280;60223;34.854;-92.408;2022-10-16T08:34:39;100673.00;;;31.47;24.30
37710;BME280;60223;34.854;-92.408;2022-10-16T08:37:04;100665.54;;;30.87;24.55
37710;BME280;60223;34.854;-92.408;2022-10-16T08:39:30;100658.54;;;31.93;24.04
37710;BME280;60223;34.854;-92.408;2022-10-16T08:42:09;100649.96;;;31.40;24.08
37710;BME280;60223;34.854;-92.408;2022-10-16T08:44:32;100641.25;;;31.53;24.35
37710;BME280;60223;34.854;-92.408;2022-10-16T08:46:51;100647.98;;;31.10;24.34
37710;BME280;60223;34.854;-92.408;2022-10-16T08:49:15;100653.49;;;31.25;24.20
37710;BME280;60223;34.854;-92.408;2022-10-16T08:51:37;100669.66;;;31.16;24.29
37710;BME280;60223;34.854;-92.408;2022-10-16T08:54:05;100676.08;;;31.06;24.33
37710;BME280;60223;34.854;-92.408;2022-10-16T08:56:29;100683.80;;;30.56;24.71
37710;BME280;60223;34.854;-92.408;2022-10-16T08:58:53;100676.10;;;30.56;24.70
37710;BME280;60223;34.854;-92.408;2022-10-16T09:01:22;100663.47;;;31.37;24.01
37710;BME280;60223;34.854;-92.408;2022-10-16T09:04:00;100656.55;;;31.36;24.25
37710;BME280;60223;34.854;-92.408;2022-10-16T09:06:22;100632.73;;;30.85;24.64
37710;BME280;60223;34.854;-92.408;2022-10-16T09:08:43;100626.51;;;31.40;24.22
37710;BME280;60223;34.854;-92.408;2022-10-16T09:11:04;100644.20;;;30.76;24.54
37710;BME280;60223;34.854;-92.408;2022-10-16T09:13:33;100643.28;;;31.45;24.30
37710;BME280;60223;34.854;-92.408;2022-10-16T09:15:59;100625.63;;;31.47;24.10
37710;BME280;60223;34.854;-92.408;2022-10-16T09:18:24;100620.82;;;31.57;24.21
37710;BME280;60223;34.854;-92.408;2022-10-16T09:20:51;100636.80;;;30.71;24.55
37710;BME280;60223;34.854;-92.408;2022-10-16T09:23:17;100644.21;;;31.40;24.11
37710;BME280;60223;34.854;-92.408;2022-10-16T09:25:35;100645.19;;;31.42;24.29
37710;BME280;60223;34.854;-92.408;2022-10-16T09:28:01;100636.18;;;31.59;24.21
37710;BME280;60223;34.854;-92.408;2022-10-16T09:30:30;100635.59;;;31.01;24.37
37710;BME280;60223;34.854;-92.408;2022-10-16T09:32:53;100626.66;;;30.79;24.80
37710;BME280;60223;34.854;-92.408;2022-10-16T09:35:20;100623.10;;;31.20;24.39
37710;BME280;60223;34.854;-92.408;2022-10-16T09:37:44;100624.53;;;31.12;24.50
37710;BME280;60223;34.854;-92.408;2022-10-16T09:40:12;100620.38;;;30.52;24.79
37710;BME280;60223;34.854;-92.408;2022-10-16T09:42:36;100614.99;;;30.68;24.86
37710;BME280;60223;34.854;-92.408;2022-10-16T09:44:58;100614.34;;;30.53;24.61
37710;BME280;60223;34.854;-92.408;2022-10-16T09:47:24;100612.39;;;31.31;24.52
37710;BME280;60223;34.854;-92.408;2022-10-16T09:49:56;100615.16;;;30.15;24.87
37710;BME280;60223;34.854;-92.408;2022-10-16T09:52:18;100612.56;;;30.50;24.76
37710;BME280;60223;34.854;-92.408;2022-10-16T09:57:11;100620.16;;;30.65;24.86
37710;BME280;60223;34.854;-92.408;2022-10-16T10:04:25;100616.51;;;30.74;24.68
37710;BME280;60223;34.854;-92.408;2022-10-16T10:06:50;100614.93;;;31.28;24.38
37710;BME280;60223;34.854;-92.408;2022-10-16T10:09:18;100621.85;;;30.88;24.47
37710;BME280;60223;34.854;-92.408;2022-10-16T10:11:44;100636.60;;;30.56;24.88
37710;BME280;60223;34.854;-92.408;2022-10-16T10:14:10;100643.49;;;30.56;24.45
37710;BME280;60223;34.854;-92.408;2022-10-16T10:16:31;100640.99;;;31.20;24.45
37710;BME280;60223;34.854;-92.408;2022-10-16T10:18:59;100643.40;;;30.30;25.08
37710;BME280;60223;34.854;-92.408;2022-10-16T10:21:22;100662.94;;;30.65;24.54
37710;BME280;60223;34.854;-92.408;2022-10-16T10:26:16;100705.75;;;31.07;24.58
37710;BME280;60223;34.854;-92.408;2022-10-16T10:28:52;100739.06;;;30.98;24.40
37710;BME280;60223;34.854;-92.408;2022-10-16T10:31:08;100772.14;;;30.88;24.25
37710;BME280;60223;34.854;-92.408;2022-10-16T10:33:37;100792.51;;;30.73;24.57
37710;BME280;60223;34.854;-92.408;2022-10-16T10:36:00;100784.33;;;30.49;24.62
37710;BME280;60223;34.854;-92.408;2022-10-16T10:38:30;100806.14;;;30.62;24.68
37710;BME280;60223;34.854;-92.408;2022-10-16T10:40:51;100797.31;;;30.66;24.68
37710;BME280;60223;34.854;-92.408;2022-10-16T10:43:19;100776.45;;;30.66;24.61
37710;BME280;60223;34.854;-92.408;2022-10-16T10:45:42;100778.76;;;31.30;24.07
37710;BME280;60223;34.854;-92.408;2022-10-16T10:48:14;100782.19;;;30.82;24.48
37710;BME280;60223;34.854;-92.408;2022-10-16T10:50:31;100794.32;;;31.12;24.32
37710;BME280;60223;34.854;-92.408;2022-10-16T10:53:02;100809.75;;;30.44;24.63
37710;BME280;60223;34.854;-92.408;2022-10-16T10:55:25;100820.56;;;30.84;24.54
37710;BME280;60223;34.854;-92.408;2022-10-16T10:57:54;100834.95;;;31.10;24.32
37710;BME280;60223;34.854;-92.408;2022-10-16T11:00:16;100855.01;;;30.39;24.63
37710;BME280;60223;34.854;-92.408;2022-10-16T11:02:40;100876.93;;;30.33;24.50
37710;BME280;60223;34.854;-92.408;2022-10-16T11:05:16;100883.70;;;31.13;24.30
37710;BME280;60223;34.854;-92.408;2022-10-16T11:07:31;100880.29;;;30.89;24.49
37710;BME280;60223;34.854;-92.408;2022-10-16T11:09:51;100889.52;;;30.26;25.07
37710;BME280;60223;34.854;-92.408;2022-10-16T11:12:20;100891.24;;;30.70;24.77
37710;BME280;60223;34.854;-92.408;2022-10-16T11:14:48;100878.14;;;31.02;24.36
37710;BME280;60223;34.854;-92.408;2022-10-16T11:17:10;100879.05;;;31.00;24.36
37710;BME280;60223;34.854;-92.408;2022-10-16T11:19:41;100881.30;;;30.53;24.66
37710;BME280;60223;34.854;-92.408;2022-10-16T11:22:05;100880.64;;;30.73;24.69
37710;BME280;60223;34.854;-92.408;2022-10-16T11:26:51;100866.40;;;30.73;24.50
37710;BME280;60223;34.854;-92.408;2022-10-16T11:29:20;100883.00;;;30.78;24.45
37710;BME280;60223;34.854;-92.408;2022-10-16T11:31:43;100894.66;;;30.72;24.38
37710;BME280;60223;34.854;-92.408;2022-10-16T11:34:11;100881.95;;;30.66;24.54
37710;BME280;60223;34.854;-92.408;2022-10-16T11:36:36;100870.91;;;30.89;24.29
37710;BME280;60223;34.854;-92.408;2022-10-16T11:39:02;100854.25;;;30.36;24.71
37710;BME280;60223;34.854;-92.408;2022-10-16T11:41:26;100865.27;;;30.92;24.26
37710;BME280;60223;34.854;-92.408;2022-10-16T11:43:54;100867.18;;;30.56;24.59
37710;BME280;60223;34.854;-92.408;2022-10-16T11:46:15;100853.67;;;31.07;24.14
37710;BME280;60223;34.854;-92.408;2022-10-16T11:48:45;100830.30;;;30.97;24.21
37710;BME280;60223;34.854;-92.408;2022-10-16T11:51:08;100825.64;;;30.31;24.73
37710;BME280;60223;34.854;-92.408;2022-10-16T11:53:41;100817.16;;;30.65;24.46
37710;BME280;60223;34.854;-92.408;2022-10-16T11:55:55;100794.73;;;30.20;24.78
37710;BME280;60223;34.854;-92.408;2022-10-16T12:00:52;100781.67;;;29.99;25.03
37710;BME280;60223;34.854;-92.408;2022-10-16T12:03:20;100786.69;;;30.09;24.75
37710;BME280;60223;34.854;-92.408;2022-10-16T12:08:08;100781.95;;;30.73;24.33
37710;BME280;60223;34.854;-92.408;2022-10-16T12:10:30;100762.13;;;30.10;24.89
37710;BME280;60223;34.854;-92.408;2022-10-16T12:12:52;100755.30;;;30.98;24.16
37710;BME280;60223;34.854;-92.408;2022-10-16T12:15:23;100749.34;;;30.22;24.77
37710;BME280;60223;34.854;-92.408;2022-10-16T12:17:42;100739.35;;;30.29;24.68
37710;BME280;60223;34.854;-92.408;2022-10-16T12:20:21;100746.23;;;30.53;24.55
37710;BME280;60223;34.854;-92.408;2022-10-16T12:22:34;100747.80;;;30.91;24.37
37710;BME280;60223;34.854;-92.408;2022-10-16T12:25:01;100751.93;;;30.91;24.34
37710;BME280;60223;34.854;-92.408;2022-10-16T12:27:31;100761.93;;;30.52;24.65
37710;BME280;60223;34.854;-92.408;2022-10-16T12:29:58;100769.22;;;30.49;24.53
37710;BME280;60223;34.854;-92.408;2022-10-16T12:32:23;100765.69;;;30.19;24.96
37710;BME280;60223;34.854;-92.408;2022-10-16T12:34:43;100768.22;;;30.42;24.74
37710;BME280;60223;34.854;-92.408;2022-10-16T12:37:14;100763.30;;;30.68;24.25
37710;BME280;60223;34.854;-92.408;2022-10-16T12:39:34;100751.49;;;30.32;24.62
37710;BME280;60223;34.854;-92.408;2022-10-16T12:42:05;100738.50;;;30.12;24.78
37710;BME280;60223;34.854;-92.408;2022-10-16T12:44:27;100742.37;;;30.41;24.52
37710;BME280;60223;34.854;-92.408;2022-10-16T12:46:50;100747.99;;;30.21;24.68
37710;BME280;60223;34.854;-92.408;2022-10-16T12:49:31;100759.16;;;30.47;24.43
37710;BME280;60223;34.854;-92.408;2022-10-16T12:51:40;100752.13;;;30.58;24.30
37710;BME280;60223;34.854;-92.408;2022-10-16T12:54:12;100748.23;;;30.06;24.76
37710;BME280;60223;34.854;-92.408;2022-10-16T12:56:42;100765.88;;;30.21;24.73
37710;BME280;60223;34.854;-92.408;2022-10-16T12:59:07;100782.06;;;30.49;24.46
37710;BME280;60223;34.854;-92.408;2022-10-16T13:01:36;100784.03;;;30.07;24.83
37710;BME280;60223;34.854;-92.408;2022-10-16T13:06:24;100787.29;;;30.09;24.85
37710;BME280;60223;34.854;-92.408;2022-10-16T13:08:57;100792.02;;;30.01;24.88
37710;BME280;60223;34.854;-92.408;2022-10-16T13:11:11;100799.44;;;30.65;24.38
37710;BME280;60223;34.854;-92.408;2022-10-16T13:13:53;100808.13;;;30.54;24.37
37710;BME280;60223;34.854;-92.408;2022-10-16T13:16:04;100815.49;;;30.40;24.51
37710;BME280;60223;34.854;-92.408;2022-10-16T13:18:24;100818.02;;;30.19;24.68